Time,TemperatureF,DewpointF,PressureIn,WindDirection,WindDirectionDegrees,WindSpeedMPH,WindSpeedGustMPH,Humidity,HourlyPrecipIn,Conditions,Clouds,dailyrainin,SoftwareType,DateUTC
2013-04-02 00:13:00,50.9,46.9,29.87,SW,225,2.7,-999.0,86,-99.99,,,0.00,Acu-Link.com,2013-04-02 07:13:00,
2013-04-02 00:28:00,50.9,46.9,29.87,SSW,202,3.7,-999.0,86,-99.99,,,0.00,Acu-Link.com,2013-04-02 07:28:00,
2013-04-02 00:43:00,51.3,46.9,29.87,SSW,202,2.2,-999.0,85,-99.99,,,0.00,Acu-Link.com,2013-04-02 07:43:00,
2013-04-02 00:58:00,51.3,46.9,29.88,West,270,3.2,-999.0,85,-99.99,,,0.00,Acu-Link.com,2013-04-02 07:58:00,
2013-04-02 01:14:00,51.1,46.7,29.88,SSW,202,3.7,-999.0,85,-99.99,,,0.00,Acu-Link.com,2013-04-02 08:14:00,
2013-04-02 01:29:00,51.1,46.7,29.89,SW,225,4.7,-999.0,85,-99.99,,,0.00,Acu-Link.com,2013-04-02 08:29:00,
2013-04-02 01:44:00,51.1,46.4,29.89,SSW,202,1.7,-999.0,84,-99.99,,,0.00,Acu-Link.com,2013-04-02 08:44:00,
2013-04-02 01:59:00,51.1,46.4,29.89,SSW,202,1.7,-999.0,84,-99.99,,,0.00,Acu-Link.com,2013-04-02 08:59:00,
2013-04-02 02:14:00,50.9,46.2,29.89,SSE,157,5.8,-999.0,84,-99.99,,,0.00,Acu-Link.com,2013-04-02 09:14:00,
2013-04-02 02:29:00,50.9,46.2,29.89,SE,135,1.7,-999.0,84,-99.99,,,0.00,Acu-Link.com,2013-04-02 09:29:00,
2013-04-02 02:45:00,50.9,46.2,29.90,ESE,112,3.2,-999.0,84,-99.99,,,0.00,Acu-Link.com,2013-04-02 09:45:00,
2013-04-02 03:00:00,50.5,46.2,29.89,NE,45,2.7,-999.0,85,-99.99,,,0.00,Acu-Link.com,2013-04-02 10:00:00,
2013-04-02 03:15:00,50.5,46.2,29.89,SW,225,1.1,-999.0,85,-99.99,,,0.00,Acu-Link.com,2013-04-02 10:15:00,
2013-04-02 03:30:00,50.5,46.2,29.90,South,180,1.1,-999.0,85,-99.99,,,0.00,Acu-Link.com,2013-04-02 10:30:00,
2013-04-02 03:45:00,50.5,45.8,29.90,SW,225,0.0,-999.0,84,-99.99,,,0.00,Acu-Link.com,2013-04-02 10:45:00,
2013-04-02 04:00:00,50.5,45.8,29.90,SSW,202,2.2,-999.0,84,-99.99,,,0.00,Acu-Link.com,2013-04-02 11:00:00,
2013-04-02 04:15:00,50.5,46.2,29.90,East,90,2.7,-999.0,85,-99.99,,,0.00,Acu-Link.com,2013-04-02 11:15:00,
2013-04-02 04:30:00,50.7,46.0,29.90,ESE,112,1.7,-999.0,84,-99.99,,,0.00,Acu-Link.com,2013-04-02 11:30:00,
2013-04-02 04:46:00,50.4,46.4,29.91,East,90,0.0,-999.0,86,-99.99,,,0.00,Acu-Link.com,2013-04-02 11:46:00,
2013-04-02 05:01:00,50.2,46.5,29.90,ESE,112,2.7,-999.0,87,-99.99,,,0.00,Acu-Link.com,2013-04-02 12:01:00,
2013-04-02 05:16:00,50.0,46.3,29.90,South,180,1.1,-999.0,87,-99.99,,,0.00,Acu-Link.com,2013-04-02 12:16:00,
2013-04-02 06:01:00,50.2,46.2,29.90,ESE,112,3.2,-999.0,86,-99.99,,,0.00,Acu-Link.com,2013-04-02 13:01:00,
2013-04-02 06:31:00,50.4,46.1,29.90,ESE,112,2.7,-999.0,85,-99.99,,,0.00,Acu-Link.com,2013-04-02 13:31:00,
2013-04-02 06:46:00,50.5,45.8,29.90,East,90,1.7,-999.0,84,-99.99,,,0.00,Acu-Link.com,2013-04-02 13:46:00,
2013-04-02 07:01:00,50.5,45.5,29.90,South,180,3.7,-999.0,83,-99.99,,,0.00,Acu-Link.com,2013-04-02 14:01:00,
2013-04-02 07:17:00,50.5,45.2,29.91,South,180,1.1,-999.0,82,-99.99,,,0.00,Acu-Link.com,2013-04-02 14:17:00,
2013-04-02 07:32:00,50.7,45.4,29.90,SSW,202,2.7,-999.0,82,-99.99,,,0.00,Acu-Link.com,2013-04-02 14:32:00,
2013-04-02 07:47:00,50.9,45.3,29.90,SSE,157,0.0,-999.0,81,-99.99,,,0.00,Acu-Link.com,2013-04-02 14:47:00,
2013-04-02 08:02:00,51.3,45.3,29.90,SSW,202,2.2,-999.0,80,-99.99,,,0.00,Acu-Link.com,2013-04-02 15:02:00,
2013-04-02 08:17:00,51.4,45.4,29.91,South,180,3.2,-999.0,80,-99.99,,,0.00,Acu-Link.com,2013-04-02 15:17:00,
2013-04-02 08:32:00,51.8,45.5,29.91,South,180,3.7,-999.0,79,-99.99,,,0.00,Acu-Link.com,2013-04-02 15:32:00,
2013-04-02 08:47:00,51.8,45.5,29.91,South,180,4.2,-999.0,79,-99.99,,,0.00,Acu-Link.com,2013-04-02 15:47:00,
2013-04-02 09:02:00,52.5,45.2,29.91,SSW,202,2.7,-999.0,76,-99.99,,,0.00,Acu-Link.com,2013-04-02 16:02:00,
2013-04-02 09:17:00,52.9,45.5,29.91,ESE,112,1.7,-999.0,76,-99.99,,,0.00,Acu-Link.com,2013-04-02 16:17:00,
2013-04-02 09:48:00,53.4,45.7,29.91,ENE,67,3.2,-999.0,75,-99.99,,,0.00,Acu-Link.com,2013-04-02 16:48:00,
2013-04-02 10:03:00,53.1,45.4,29.91,SSW,202,2.7,-999.0,75,-99.99,,,0.00,Acu-Link.com,2013-04-02 17:03:00,
2013-04-02 10:18:00,52.9,45.5,29.91,South,180,2.7,-999.0,76,-99.99,,,0.00,Acu-Link.com,2013-04-02 17:18:00,
2013-04-02 10:48:00,54.5,45.7,29.91,South,180,2.2,-999.0,72,-99.99,,,0.00,Acu-Link.com,2013-04-02 17:48:00,
2013-04-02 11:05:00,55.6,46.0,29.91,SE,135,2.7,-999.0,70,-99.99,,,0.00,Acu-Link.com,2013-04-02 18:05:00,
2013-04-02 11:20:00,55.6,46.0,29.91,SSW,202,4.2,-999.0,70,-99.99,,,0.00,Acu-Link.com,2013-04-02 18:20:00,
2013-04-02 11:35:00,55.6,46.3,29.91,SSW,202,2.7,-999.0,71,-99.99,,,0.00,Acu-Link.com,2013-04-02 18:35:00,
2013-04-02 11:50:00,55.6,46.3,29.91,South,180,3.2,-999.0,71,-99.99,,,0.00,Acu-Link.com,2013-04-02 18:50:00,
2013-04-02 12:05:00,55.2,46.3,29.91,SSW,202,3.2,-999.0,72,-99.99,,,0.00,Acu-Link.com,2013-04-02 19:05:00,
2013-04-02 12:21:00,55.2,46.3,29.91,SE,135,1.7,-999.0,72,-99.99,,,0.00,Acu-Link.com,2013-04-02 19:21:00,
2013-04-02 12:36:00,54.7,46.6,29.91,South,180,1.1,-999.0,74,-99.99,,,0.00,Acu-Link.com,2013-04-02 19:36:00,
2013-04-02 12:51:00,55.8,46.9,29.91,South,180,0.0,-999.0,72,-99.99,,,0.00,Acu-Link.com,2013-04-02 19:51:00,
2013-04-02 13:21:00,54.7,46.2,29.91,SSW,202,5.3,-999.0,73,-99.99,,,0.00,Acu-Link.com,2013-04-02 20:21:00,
2013-04-02 13:52:00,55.6,46.7,29.91,SSW,202,1.7,-999.0,72,-99.99,,,0.00,Acu-Link.com,2013-04-02 20:52:00,
2013-04-02 14:07:00,55.4,46.9,29.91,South,180,3.2,-999.0,73,-99.99,,,0.00,Acu-Link.com,2013-04-02 21:07:00,
2013-04-02 14:37:00,56.7,47.0,29.91,SSW,202,0.0,-999.0,70,-99.99,,,0.00,Acu-Link.com,2013-04-02 21:37:00,
2013-04-02 14:52:00,56.8,47.1,29.91,SSW,202,0.0,-999.0,70,-99.99,,,0.00,Acu-Link.com,2013-04-02 21:52:00,
2013-04-02 15:07:00,56.8,47.1,29.91,South,180,3.2,-999.0,70,-99.99,,,0.00,Acu-Link.com,2013-04-02 22:07:00,
2013-04-02 15:22:00,57.9,47.8,29.90,SSE,157,2.2,-999.0,69,-99.99,,,0.00,Acu-Link.com,2013-04-02 22:22:00,
2013-04-02 15:38:00,57.9,47.4,29.89,SSW,202,3.7,-999.0,68,-99.99,,,0.00,Acu-Link.com,2013-04-02 22:38:00,
2013-04-02 15:53:00,58.6,47.7,29.89,ENE,67,5.3,-999.0,67,-99.99,,,0.00,Acu-Link.com,2013-04-02 22:53:00,
2013-04-02 16:23:00,58.1,47.6,29.89,South,180,3.7,-999.0,68,-99.99,,,0.00,Acu-Link.com,2013-04-02 23:23:00,
2013-04-02 16:39:00,58.3,47.8,29.89,South,180,3.2,-999.0,68,-99.99,,,0.00,Acu-Link.com,2013-04-02 23:39:00,
2013-04-02 16:54:00,58.1,48.0,29.88,ESE,112,4.7,-999.0,69,-99.99,,,0.00,Acu-Link.com,2013-04-02 23:54:00,
2013-04-02 17:09:00,57.7,47.6,29.88,SE,135,2.2,-999.0,69,-99.99,,,0.00,Acu-Link.com,2013-04-03 00:09:00,
2013-04-02 17:40:00,57.6,47.5,29.87,SSW,202,1.1,-999.0,69,-99.99,,,0.00,Acu-Link.com,2013-04-03 00:40:00,
2013-04-02 17:55:00,57.4,47.7,29.87,SSW,202,3.7,-999.0,70,-99.99,,,0.00,Acu-Link.com,2013-04-03 00:55:00,
2013-04-02 18:10:00,56.8,47.5,29.87,South,180,1.7,-999.0,71,-99.99,,,0.00,Acu-Link.com,2013-04-03 01:10:00,
2013-04-02 18:25:00,56.3,48.1,29.87,ESE,112,2.2,-999.0,74,-99.99,,,0.00,Acu-Link.com,2013-04-03 01:25:00,
2013-04-02 18:41:00,56.3,47.8,29.87,ESE,112,1.7,-999.0,73,-99.99,,,0.00,Acu-Link.com,2013-04-03 01:41:00,
2013-04-02 18:56:00,56.1,47.9,29.86,East,90,3.7,-999.0,74,-99.99,,,0.00,Acu-Link.com,2013-04-03 01:56:00,
2013-04-02 19:12:00,56.3,47.4,29.86,SSW,202,1.1,-999.0,72,-99.99,,,0.00,Acu-Link.com,2013-04-03 02:12:00,
2013-04-02 19:27:00,55.9,47.7,29.86,SSW,202,1.1,-999.0,74,-99.99,,,0.00,Acu-Link.com,2013-04-03 02:27:00,
2013-04-02 19:42:00,55.6,47.8,29.85,South,180,1.7,-999.0,75,-99.99,,,0.00,Acu-Link.com,2013-04-03 02:42:00,
2013-04-02 19:59:00,53.8,47.4,29.86,South,180,3.2,-999.0,79,-99.99,,,0.00,Acu-Link.com,2013-04-03 02:59:00,
2013-04-02 20:16:00,53.1,46.8,29.87,South,180,1.1,-999.0,79,-99.99,,,0.00,Acu-Link.com,2013-04-03 03:16:00,
2013-04-02 20:46:00,52.2,46.5,29.88,WSW,247,2.2,-999.0,81,-99.99,,,0.00,Acu-Link.com,2013-04-03 03:46:00,
2013-04-02 21:02:00,52.0,46.4,29.89,SSE,157,2.7,-999.0,81,-99.99,,,0.00,Acu-Link.com,2013-04-03 04:02:00,
2013-04-02 21:17:00,51.6,46.3,29.89,West,270,3.2,-999.0,82,-99.99,,,0.00,Acu-Link.com,2013-04-03 04:17:00,
2013-04-02 21:32:00,51.4,46.4,29.89,SW,225,2.2,-999.0,83,-99.99,,,0.00,Acu-Link.com,2013-04-03 04:32:00,
2013-04-02 21:48:00,51.3,46.3,29.89,SSW,202,0.0,-999.0,83,-99.99,,,0.00,Acu-Link.com,2013-04-03 04:48:00,
2013-04-02 22:03:00,51.3,46.3,29.90,WSW,247,0.0,-999.0,83,-99.99,,,0.00,Acu-Link.com,2013-04-03 05:03:00,
2013-04-02 22:19:00,51.1,46.1,29.89,SW,225,0.0,-999.0,83,-99.99,,,0.00,Acu-Link.com,2013-04-03 05:19:00,
2013-04-02 22:34:00,51.1,46.1,29.90,WSW,247,0.0,-999.0,83,-99.99,,,0.00,Acu-Link.com,2013-04-03 05:34:00,
2013-04-02 22:49:00,51.1,46.4,29.89,WNW,292,1.7,-999.0,84,-99.99,,,0.00,Acu-Link.com,2013-04-03 05:49:00,
2013-04-02 23:04:00,50.7,46.4,29.89,East,90,2.2,-999.0,85,-99.99,,,0.00,Acu-Link.com,2013-04-03 06:04:00,
2013-04-02 23:19:00,50.2,46.2,29.89,East,90,0.0,-999.0,86,-99.99,,,0.00,Acu-Link.com,2013-04-03 06:19:00,
2013-04-02 23:34:00,50.0,46.3,29.89,SW,225,0.0,-999.0,87,-99.99,,,0.00,Acu-Link.com,2013-04-03 06:34:00,
2013-04-02 23:49:00,49.8,46.1,29.89,WNW,292,1.1,-999.0,87,-99.99,,,0.00,Acu-Link.com,2013-04-03 06:49:00,